Portada
METAR-TAF:

METAR-TAF

Aeroports :

Jonesboro, Arkansas, Estats Units d'Amèrica

latitud: 35-50-14N, longitud: 090-38-35W, altitud: 79 m

Observació

L'informe es va fer fa 22 minuts, a les 01:53 UTC
Vent calma
Temperatura 28°C
Humitat 66%
Pressió 1013 hPa
Visibilitat: 16.1 km
Cel clar

METAR: KJBR 250153Z AUTO 00000KT 10SM CLR 28/21 A2991 RMK AO2 SLP124 T02830206 $

Hora: 21:15 (02:15 UTC)

Pronòstic

L'informe es va fer fa 2 hores i 54 minuts, a les 23:21 UTC
Pronòstic vàlid del 25 a les 00 UTC al 25 a les 24 UTC
Vent 5 kt del Sud/Sud-Est
Visibilitat: 10 km
Cel clar
A partir de les 25 a les 0200 UTC
Vent kt del Nord
Visibilitat: 10 km
Cel clar
A partir de les 25 a les 1400 UTC
Vent 8 kt del Sud/Sud-Oest
Visibilitat: 10 km
Núvols disperses a una alçada de 25000 ft

TAF: KJBR 242321Z 2500/2524 16005KT P6SM SKC FM250200 00000KT P6SM SKC FM251400 21008KT P6SM SCT250

Observacions i pronòstics meteorològics de més de 4000 aeroports (METAR i TAF).

Les estacions disponibles són els punts grocs i vermells al mapa.

Posi el ratolí al punt desitjat per veure el nom de l'estació.

Feu clic per veure les observacions i els pronòstics meteorològics.

Per canviar el mapa: feu clic els botons verds amb una creu de color negre per apropar; al botó verd amb un guió per allunyar la imatge; o en les fletxes verdes per a mapes adjacents.


METAR-TAF: